sensor_id;sensor_type;location;lat;lon;timestamp;pressure;altitude;pressure_sealevel;temperature;humidity
53506;BME280;39388;50.936;6.848;2022-07-09T00:01:55;102194.81;;;19.59;61.97
53506;BME280;39388;50.936;6.848;2022-07-09T00:04:25;102198.34;;;19.56;62.21
53506;BME280;39388;50.936;6.848;2022-07-09T00:06:55;102201.03;;;19.53;62.36
53506;BME280;39388;50.936;6.848;2022-07-09T00:09:26;102191.53;;;19.48;62.70
53506;BME280;39388;50.936;6.848;2022-07-09T00:11:56;102192.47;;;19.44;62.79
53506;BME280;39388;50.936;6.848;2022-07-09T00:14:27;102198.50;;;19.47;62.90
53506;BME280;39388;50.936;6.848;2022-07-09T00:16:59;102196.03;;;19.39;63.07
53506;BME280;39388;50.936;6.848;2022-07-09T00:19:30;102200.41;;;19.39;63.15
53506;BME280;39388;50.936;6.848;2022-07-09T00:22:00;102187.41;;;19.33;63.49
53506;BME280;39388;50.936;6.848;2022-07-09T00:24:31;102187.44;;;19.31;63.64
53506;BME280;39388;50.936;6.848;2022-07-09T00:27:01;102190.94;;;19.30;63.52
53506;BME280;39388;50.936;6.848;2022-07-09T00:29:32;102176.38;;;19.17;63.69
53506;BME280;39388;50.936;6.848;2022-07-09T00:32:03;102185.00;;;19.20;63.79
53506;BME280;39388;50.936;6.848;2022-07-09T00:34:33;102178.19;;;19.11;64.02
53506;BME280;39388;50.936;6.848;2022-07-09T00:37:04;102180.78;;;19.13;63.94
53506;BME280;39388;50.936;6.848;2022-07-09T00:39:35;102185.19;;;19.09;64.14
53506;BME280;39388;50.936;6.848;2022-07-09T00:42:07;102192.13;;;19.12;64.44
53506;BME280;39388;50.936;6.848;2022-07-09T00:44:38;102184.41;;;19.04;64.45
53506;BME280;39388;50.936;6.848;2022-07-09T00:47:08;102159.34;;;18.92;64.67
53506;BME280;39388;50.936;6.848;2022-07-09T00:49:41;102187.03;;;19.03;64.63
53506;BME280;39388;50.936;6.848;2022-07-09T00:52:14;102170.69;;;18.91;64.69
53506;BME280;39388;50.936;6.848;2022-07-09T00:54:45;102165.53;;;18.87;64.89
53506;BME280;39388;50.936;6.848;2022-07-09T00:57:16;102171.63;;;18.87;65.05
53506;BME280;39388;50.936;6.848;2022-07-09T00:59:49;102176.00;;;18.87;64.71
53506;BME280;39388;50.936;6.848;2022-07-09T01:02:21;102168.22;;;18.80;65.05
53506;BME280;39388;50.936;6.848;2022-07-09T01:04:52;102165.69;;;18.77;65.26
53506;BME280;39388;50.936;6.848;2022-07-09T01:07:22;102167.38;;;18.78;65.38
53506;BME280;39388;50.936;6.848;2022-07-09T01:09:53;102160.53;;;18.73;65.37
53506;BME280;39388;50.936;6.848;2022-07-09T01:12:23;102161.41;;;18.72;65.37
53506;BME280;39388;50.936;6.848;2022-07-09T01:14:54;102163.22;;;18.70;65.69
53506;BME280;39388;50.936;6.848;2022-07-09T01:17:24;102164.94;;;18.71;65.70
53506;BME280;39388;50.936;6.848;2022-07-09T01:19:54;102167.50;;;18.72;65.89
53506;BME280;39388;50.936;6.848;2022-07-09T01:22:25;102148.53;;;18.61;65.70
53506;BME280;39388;50.936;6.848;2022-07-09T01:24:56;102172.72;;;18.72;65.89
53506;BME280;39388;50.936;6.848;2022-07-09T01:27:27;102162.44;;;18.63;65.95
53506;BME280;39388;50.936;6.848;2022-07-09T01:29:57;102169.28;;;18.70;66.07
53506;BME280;39388;50.936;6.848;2022-07-09T01:32:27;102150.34;;;18.56;66.01
53506;BME280;39388;50.936;6.848;2022-07-09T01:34:58;102157.25;;;18.58;66.17
53506;BME280;39388;50.936;6.848;2022-07-09T01:37:28;102149.50;;;18.54;66.20
53506;BME280;39388;50.936;6.848;2022-07-09T01:39:58;102135.72;;;18.44;66.13
53506;BME280;39388;50.936;6.848;2022-07-09T01:42:29;102158.94;;;18.62;66.26
53506;BME280;39388;50.936;6.848;2022-07-09T01:44:59;102145.16;;;18.53;66.43
53506;BME280;39388;50.936;6.848;2022-07-09T01:47:29;102143.44;;;18.52;66.48
53506;BME280;39388;50.936;6.848;2022-07-09T01:50:00;102143.47;;;18.50;66.45
53506;BME280;39388;50.936;6.848;2022-07-09T01:52:30;102127.94;;;18.41;66.62
53506;BME280;39388;50.936;6.848;2022-07-09T01:55:01;102134.03;;;18.41;66.72
53506;BME280;39388;50.936;6.848;2022-07-09T01:57:32;102145.31;;;18.43;66.78
53506;BME280;39388;50.936;6.848;2022-07-09T02:00:04;102142.66;;;18.45;66.96
53506;BME280;39388;50.936;6.848;2022-07-09T02:02:35;102139.31;;;18.37;66.91
53506;BME280;39388;50.936;6.848;2022-07-09T02:05:05;102146.22;;;18.41;66.97
53506;BME280;39388;50.936;6.848;2022-07-09T02:07:36;102140.16;;;18.37;67.27
53506;BME280;39388;50.936;6.848;2022-07-09T02:10:07;102121.16;;;18.27;66.97
53506;BME280;39388;50.936;6.848;2022-07-09T02:12:37;102133.28;;;18.28;67.01
53506;BME280;39388;50.936;6.848;2022-07-09T02:15:09;102137.59;;;18.34;67.05
53506;BME280;39388;50.936;6.848;2022-07-09T02:17:41;102121.19;;;18.23;67.24
53506;BME280;39388;50.936;6.848;2022-07-09T02:20:11;102128.06;;;18.28;67.73
53506;BME280;39388;50.936;6.848;2022-07-09T02:22:42;102121.22;;;18.21;67.32
53506;BME280;39388;50.936;6.848;2022-07-09T02:25:12;102113.44;;;18.19;67.55
53506;BME280;39388;50.936;6.848;2022-07-09T02:27:42;102106.59;;;18.11;67.50
53506;BME280;39388;50.936;6.848;2022-07-09T02:30:13;102130.75;;;18.25;67.86
53506;BME280;39388;50.936;6.848;2022-07-09T02:32:43;102124.75;;;18.17;67.62
53506;BME280;39388;50.936;6.848;2022-07-09T02:35:16;102132.56;;;18.20;67.77
53506;BME280;39388;50.936;6.848;2022-07-09T02:37:46;102117.81;;;18.16;67.64
53506;BME280;39388;50.936;6.848;2022-07-09T02:40:17;102085.88;;;17.98;67.64
53506;BME280;39388;50.936;6.848;2022-07-09T02:42:47;102094.50;;;18.03;67.66
53506;BME280;39388;50.936;6.848;2022-07-09T02:45:18;102098.72;;;18.12;67.56
53506;BME280;39388;50.936;6.848;2022-07-09T02:47:48;102073.66;;;18.02;67.55
53506;BME280;39388;50.936;6.848;2022-07-09T02:50:18;102095.19;;;18.15;67.70
53506;BME280;39388;50.936;6.848;2022-07-09T02:52:49;102094.31;;;18.16;67.70
53506;BME280;39388;50.936;6.848;2022-07-09T02:55:19;102075.34;;;18.06;67.68
53506;BME280;39388;50.936;6.848;2022-07-09T02:57:50;102077.88;;;18.09;67.71
53506;BME280;39388;50.936;6.848;2022-07-09T03:00:20;102057.19;;;17.97;67.67
53506;BME280;39388;50.936;6.848;2022-07-09T03:02:50;102066.59;;;18.07;67.62
53506;BME280;39388;50.936;6.848;2022-07-09T03:05:21;102080.38;;;18.18;67.70
53506;BME280;39388;50.936;6.848;2022-07-09T03:07:51;102079.50;;;18.18;67.62
53506;BME280;39388;50.936;6.848;2022-07-09T03:10:22;102098.44;;;18.32;67.62
53506;BME280;39388;50.936;6.848;2022-07-09T03:12:52;102108.81;;;18.39;67.65
53506;BME280;39388;50.936;6.848;2022-07-09T03:15:23;102115.66;;;18.47;67.82
53506;BME280;39388;50.936;6.848;2022-07-09T03:17:53;102094.03;;;18.38;67.81
53506;BME280;39388;50.936;6.848;2022-07-09T03:20:23;102073.28;;;18.27;67.57
53506;BME280;39388;50.936;6.848;2022-07-09T03:22:54;102094.81;;;18.43;67.52
53506;BME280;39388;50.936;6.848;2022-07-09T03:25:24;102056.91;;;18.15;67.63
53506;BME280;39388;50.936;6.848;2022-07-09T03:27:54;102070.75;;;18.22;67.55
53506;BME280;39388;50.936;6.848;2022-07-09T03:30:25;102092.34;;;18.35;67.78
53506;BME280;39388;50.936;6.848;2022-07-09T03:32:58;102058.63;;;18.18;67.55
53506;BME280;39388;50.936;6.848;2022-07-09T03:35:29;102065.47;;;18.25;67.44
53506;BME280;39388;50.936;6.848;2022-07-09T03:37:59;102075.84;;;18.30;67.63
53506;BME280;39388;50.936;6.848;2022-07-09T03:40:30;102095.72;;;18.40;67.71
53506;BME280;39388;50.936;6.848;2022-07-09T03:43:00;102074.09;;;18.30;67.76
53506;BME280;39388;50.936;6.848;2022-07-09T03:45:31;102105.25;;;18.44;67.82
53506;BME280;39388;50.936;6.848;2022-07-09T03:48:01;102079.25;;;18.33;67.81
53506;BME280;39388;50.936;6.848;2022-07-09T03:50:32;102045.56;;;18.18;67.61
53506;BME280;39388;50.936;6.848;2022-07-09T03:53:02;102092.19;;;18.44;67.79
53506;BME280;39388;50.936;6.848;2022-07-09T03:55:33;102107.66;;;18.57;67.60
53506;BME280;39388;50.936;6.848;2022-07-09T03:58:03;102067.13;;;18.29;67.58
53506;BME280;39388;50.936;6.848;2022-07-09T04:00:34;102074.91;;;18.34;67.73
53506;BME280;39388;50.936;6.848;2022-07-09T04:03:04;102082.75;;;18.34;67.63
53506;BME280;39388;50.936;6.848;2022-07-09T04:05:34;102073.25;;;18.30;67.65
53506;BME280;39388;50.936;6.848;2022-07-09T04:08:05;102064.75;;;18.15;67.73
53506;BME280;39388;50.936;6.848;2022-07-09T04:10:35;102082.09;;;18.18;67.98
53506;BME280;39388;50.936;6.848;2022-07-09T04:13:06;102117.53;;;18.36;68.07
53506;BME280;39388;50.936;6.848;2022-07-09T04:15:36;102112.41;;;18.30;68.34
53506;BME280;39388;50.936;6.848;2022-07-09T04:18:07;102083.91;;;18.14;68.21
53506;BME280;39388;50.936;6.848;2022-07-09T04:20:37;102096.88;;;18.20;68.30
53506;BME280;39388;50.936;6.848;2022-07-09T04:23:08;102117.59;;;18.33;68.22
53506;BME280;39388;50.936;6.848;2022-07-09T04:25:38;102107.13;;;18.33;68.13
53506;BME280;39388;50.936;6.848;2022-07-09T04:28:09;102071.81;;;18.09;68.16
53506;BME280;39388;50.936;6.848;2022-07-09T04:30:39;102078.72;;;18.11;68.06
53506;BME280;39388;50.936;6.848;2022-07-09T04:33:10;102104.59;;;18.27;68.01
53506;BME280;39388;50.936;6.848;2022-07-09T04:35:41;102099.44;;;18.24;68.14
53506;BME280;39388;50.936;6.848;2022-07-09T04:38:12;102128.84;;;18.38;68.08
53506;BME280;39388;50.936;6.848;2022-07-09T04:40:43;102121.88;;;18.37;68.10
53506;BME280;39388;50.936;6.848;2022-07-09T04:43:13;102102.88;;;18.27;68.36
53506;BME280;39388;50.936;6.848;2022-07-09T04:45:43;102114.94;;;18.36;68.25
53506;BME280;39388;50.936;6.848;2022-07-09T04:48:14;102082.91;;;18.22;68.13
53506;BME280;39388;50.936;6.848;2022-07-09T04:50:44;102094.09;;;18.31;68.05
53506;BME280;39388;50.936;6.848;2022-07-09T04:53:15;102097.56;;;18.35;68.30
53506;BME280;39388;50.936;6.848;2022-07-09T04:55:45;102106.09;;;18.45;68.37
53506;BME280;39388;50.936;6.848;2022-07-09T04:58:15;102109.47;;;18.53;68.31
53506;BME280;39388;50.936;6.848;2022-07-09T05:00:46;102118.91;;;18.62;68.32
53506;BME280;39388;50.936;6.848;2022-07-09T05:03:16;102057.59;;;18.27;68.07
53506;BME280;39388;50.936;6.848;2022-07-09T05:05:47;102100.75;;;18.54;68.17
53506;BME280;39388;50.936;6.848;2022-07-09T05:08:18;102125.59;;;18.78;68.14
53506;BME280;39388;50.936;6.848;2022-07-09T05:10:48;102109.16;;;18.73;68.37
53506;BME280;39388;50.936;6.848;2022-07-09T05:13:19;102084.91;;;18.63;68.30
53506;BME280;39388;50.936;6.848;2022-07-09T05:15:49;102109.00;;;18.81;68.11
53506;BME280;39388;50.936;6.848;2022-07-09T05:18:19;102102.03;;;18.81;67.97
53506;BME280;39388;50.936;6.848;2022-07-09T05:20:50;102093.44;;;18.75;68.03
53506;BME280;39388;50.936;6.848;2022-07-09T05:23:20;102105.59;;;18.76;67.79
53506;BME280;39388;50.936;6.848;2022-07-09T05:25:50;102109.09;;;18.76;67.83
53506;BME280;39388;50.936;6.848;2022-07-09T05:28:21;102099.63;;;18.69;68.09
53506;BME280;39388;50.936;6.848;2022-07-09T05:30:51;102095.28;;;18.70;68.15
53506;BME280;39388;50.936;6.848;2022-07-09T05:33:22;102096.84;;;18.80;67.99
53506;BME280;39388;50.936;6.848;2022-07-09T05:35:52;102118.41;;;18.91;67.94
53506;BME280;39388;50.936;6.848;2022-07-09T05:38:23;102120.97;;;18.94;67.82
53506;BME280;39388;50.936;6.848;2022-07-09T05:40:53;102114.88;;;18.95;67.98
53506;BME280;39388;50.936;6.848;2022-07-09T05:43:24;102105.31;;;18.93;68.00
53506;BME280;39388;50.936;6.848;2022-07-09T05:45:54;102126.03;;;19.05;67.97
53506;BME280;39388;50.936;6.848;2022-07-09T05:48:24;102128.56;;;19.08;68.24
53506;BME280;39388;50.936;6.848;2022-07-09T05:50:55;102122.25;;;19.20;67.96
53506;BME280;39388;50.936;6.848;2022-07-09T05:53:25;102101.28;;;19.22;68.00
53506;BME280;39388;50.936;6.848;2022-07-09T05:55:55;102099.28;;;19.36;67.78
53506;BME280;39388;50.936;6.848;2022-07-09T05:58:26;102098.28;;;19.45;67.71
53506;BME280;39388;50.936;6.848;2022-07-09T06:00:56;102109.56;;;19.49;67.64
53506;BME280;39388;50.936;6.848;2022-07-09T06:03:27;102110.44;;;19.48;67.89
53506;BME280;39388;50.936;6.848;2022-07-09T06:05:57;102110.41;;;19.49;67.92
53506;BME280;39388;50.936;6.848;2022-07-09T06:08:28;102117.47;;;19.44;68.27
53506;BME280;39388;50.936;6.848;2022-07-09T06:10:59;102120.09;;;19.44;67.97
53506;BME280;39388;50.936;6.848;2022-07-09T06:13:29;102113.06;;;19.46;68.01
53506;BME280;39388;50.936;6.848;2022-07-09T06:16:00;102122.38;;;19.61;68.09
53506;BME280;39388;50.936;6.848;2022-07-09T06:18:30;102118.72;;;19.70;67.75
53506;BME280;39388;50.936;6.848;2022-07-09T06:21:04;102134.84;;;19.92;67.52
53506;BME280;39388;50.936;6.848;2022-07-09T06:23:35;102120.69;;;19.99;67.28
53506;BME280;39388;50.936;6.848;2022-07-09T06:26:05;102129.94;;;20.16;67.05
53506;BME280;39388;50.936;6.848;2022-07-09T06:28:37;102129.78;;;20.24;66.81
53506;BME280;39388;50.936;6.848;2022-07-09T06:31:07;102115.78;;;20.25;66.67
53506;BME280;39388;50.936;6.848;2022-07-09T06:33:38;102126.19;;;21.00;65.25
53506;BME280;39388;50.936;6.848;2022-07-09T06:36:08;102113.97;;;22.24;61.99
53506;BME280;39388;50.936;6.848;2022-07-09T06:38:39;102076.28;;;22.77;59.39
53506;BME280;39388;50.936;6.848;2022-07-09T06:41:28;102118.69;;;23.67;58.11
53506;BME280;39388;50.936;6.848;2022-07-09T06:43:58;102117.66;;;24.18;56.52
53506;BME280;39388;50.936;6.848;2022-07-09T06:46:28;102109.72;;;24.64;55.25
53506;BME280;39388;50.936;6.848;2022-07-09T06:48:59;102113.78;;;25.31;53.85
53506;BME280;39388;50.936;6.848;2022-07-09T06:51:29;102071.81;;;25.46;52.31
53506;BME280;39388;50.936;6.848;2022-07-09T06:54:00;102066.72;;;25.99;51.08
53506;BME280;39388;50.936;6.848;2022-07-09T06:56:30;102083.88;;;26.79;48.97
53506;BME280;39388;50.936;6.848;2022-07-09T06:59:04;102062.09;;;27.41;47.08
53506;BME280;39388;50.936;6.848;2022-07-09T07:01:34;102072.03;;;28.32;45.84
53506;BME280;39388;50.936;6.848;2022-07-09T07:04:05;102082.13;;;29.01;44.16
53506;BME280;39388;50.936;6.848;2022-07-09T07:06:36;102089.16;;;29.31;43.18
53506;BME280;39388;50.936;6.848;2022-07-09T07:09:06;102097.97;;;29.88;42.17
53506;BME280;39388;50.936;6.848;2022-07-09T07:11:36;102101.38;;;30.17;40.58
53506;BME280;39388;50.936;6.848;2022-07-09T07:14:07;102106.78;;;30.43;40.41
53506;BME280;39388;50.936;6.848;2022-07-09T07:16:37;102096.84;;;30.86;39.12
53506;BME280;39388;50.936;6.848;2022-07-09T07:19:08;102103.84;;;31.00;38.46
53506;BME280;39388;50.936;6.848;2022-07-09T07:21:39;102096.41;;;30.92;37.95
53506;BME280;39388;50.936;6.848;2022-07-09T07:24:09;102090.41;;;31.14;37.72
53506;BME280;39388;50.936;6.848;2022-07-09T07:26:40;102101.72;;;31.44;36.94
53506;BME280;39388;50.936;6.848;2022-07-09T07:29:10;102093.16;;;31.51;36.30
53506;BME280;39388;50.936;6.848;2022-07-09T07:31:41;102096.69;;;31.76;35.77
53506;BME280;39388;50.936;6.848;2022-07-09T07:34:11;102107.81;;;32.18;35.23
53506;BME280;39388;50.936;6.848;2022-07-09T07:36:41;102098.16;;;32.40;34.44
53506;BME280;39388;50.936;6.848;2022-07-09T07:39:12;102098.88;;;32.67;33.93
53506;BME280;39388;50.936;6.848;2022-07-09T07:41:42;102107.75;;;32.78;33.80
53506;BME280;39388;50.936;6.848;2022-07-09T07:44:12;102110.81;;;32.97;33.59
53506;BME280;39388;50.936;6.848;2022-07-09T07:46:43;102095.97;;;33.04;33.16
53506;BME280;39388;50.936;6.848;2022-07-09T07:49:13;102101.56;;;32.89;33.00
53506;BME280;39388;50.936;6.848;2022-07-09T07:51:44;102101.31;;;32.70;33.26
53506;BME280;39388;50.936;6.848;2022-07-09T07:54:14;102094.50;;;32.77;33.32
53506;BME280;39388;50.936;6.848;2022-07-09T07:56:45;102101.78;;;32.63;32.62
53506;BME280;39388;50.936;6.848;2022-07-09T07:59:16;102090.84;;;32.20;33.36
53506;BME280;39388;50.936;6.848;2022-07-09T08:01:47;102086.25;;;31.73;33.91
53506;BME280;39388;50.936;6.848;2022-07-09T08:04:17;102096.34;;;31.81;34.21
53506;BME280;39388;50.936;6.848;2022-07-09T08:06:47;102097.91;;;31.96;34.23
53506;BME280;39388;50.936;6.848;2022-07-09T08:09:18;102098.31;;;32.50;33.48
53506;BME280;39388;50.936;6.848;2022-07-09T08:11:48;102098.31;;;33.08;32.77
53506;BME280;39388;50.936;6.848;2022-07-09T08:14:18;102104.84;;;32.93;32.94
53506;BME280;39388;50.936;6.848;2022-07-09T08:16:49;102096.94;;;32.57;32.99
53506;BME280;39388;50.936;6.848;2022-07-09T08:19:20;102098.25;;;32.63;32.56
53506;BME280;39388;50.936;6.848;2022-07-09T08:21:50;102099.91;;;32.17;33.36
53506;BME280;39388;50.936;6.848;2022-07-09T08:24:20;102092.84;;;32.05;32.98
53506;BME280;39388;50.936;6.848;2022-07-09T08:26:51;102079.34;;;31.57;33.38
53506;BME280;39388;50.936;6.848;2022-07-09T08:29:21;102078.84;;;31.77;33.03
53506;BME280;39388;50.936;6.848;2022-07-09T08:31:51;102072.38;;;31.92;32.70
53506;BME280;39388;50.936;6.848;2022-07-09T08:34:22;102085.81;;;31.79;32.62
53506;BME280;39388;50.936;6.848;2022-07-09T08:36:52;102073.47;;;31.90;33.00
53506;BME280;39388;50.936;6.848;2022-07-09T08:39:26;102079.63;;;32.39;32.36
53506;BME280;39388;50.936;6.848;2022-07-09T08:41:58;102059.19;;;32.73;31.67
53506;BME280;39388;50.936;6.848;2022-07-09T08:44:29;102082.75;;;33.14;30.89
53506;BME280;39388;50.936;6.848;2022-07-09T08:47:04;102074.00;;;33.00;31.46
53506;BME280;39388;50.936;6.848;2022-07-09T08:49:36;102085.34;;;32.45;32.17
53506;BME280;39388;50.936;6.848;2022-07-09T08:52:07;102073.22;;;32.17;32.64
53506;BME280;39388;50.936;6.848;2022-07-09T08:54:38;102061.91;;;32.38;32.41
53506;BME280;39388;50.936;6.848;2022-07-09T08:57:12;102064.91;;;32.33;32.28
53506;BME280;39388;50.936;6.848;2022-07-09T08:59:42;102070.28;;;31.84;32.80
53506;BME280;39388;50.936;6.848;2022-07-09T09:02:12;102069.22;;;31.63;33.17
53506;BME280;39388;50.936;6.848;2022-07-09T09:04:44;102068.13;;;31.65;33.10
53506;BME280;39388;50.936;6.848;2022-07-09T09:07:19;102051.78;;;31.70;32.88
53506;BME280;39388;50.936;6.848;2022-07-09T09:09:49;102056.91;;;32.22;32.93
53506;BME280;39388;50.936;6.848;2022-07-09T09:12:27;102055.66;;;32.61;32.67
53506;BME280;39388;50.936;6.848;2022-07-09T09:14:58;102049.22;;;32.75;32.59
53506;BME280;39388;50.936;6.848;2022-07-09T09:17:29;102055.97;;;32.45;32.46
53506;BME280;39388;50.936;6.848;2022-07-09T09:19:59;102057.66;;;31.75;33.35
53506;BME280;39388;50.936;6.848;2022-07-09T09:22:54;102045.19;;;30.75;34.69
53506;BME280;39388;50.936;6.848;2022-07-09T09:25:30;102045.88;;;30.39;35.52
53506;BME280;39388;50.936;6.848;2022-07-09T09:28:00;102043.41;;;30.23;35.40
53506;BME280;39388;50.936;6.848;2022-07-09T09:30:31;102039.75;;;30.11;36.00
53506;BME280;39388;50.936;6.848;2022-07-09T09:33:03;102029.28;;;29.95;35.96
53506;BME280;39388;50.936;6.848;2022-07-09T09:35:34;102037.88;;;29.85;36.50
53506;BME280;39388;50.936;6.848;2022-07-09T09:38:04;102034.41;;;29.70;36.62
53506;BME280;39388;50.936;6.848;2022-07-09T09:40:35;102034.47;;;29.56;36.60
53506;BME280;39388;50.936;6.848;2022-07-09T09:43:07;102032.47;;;29.45;36.50
53506;BME280;39388;50.936;6.848;2022-07-09T09:45:39;102032.78;;;29.26;36.83
53506;BME280;39388;50.936;6.848;2022-07-09T09:48:09;102024.94;;;29.24;36.38
53506;BME280;39388;50.936;6.848;2022-07-09T09:50:40;102029.94;;;29.29;36.20
53506;BME280;39388;50.936;6.848;2022-07-09T09:53:11;102001.50;;;29.17;36.40
53506;BME280;39388;50.936;6.848;2022-07-09T09:55:43;102007.38;;;29.36;36.54
53506;BME280;39388;50.936;6.848;2022-07-09T09:58:14;102006.66;;;29.47;36.02
53506;BME280;39388;50.936;6.848;2022-07-09T10:00:44;102003.63;;;29.53;35.44
53506;BME280;39388;50.936;6.848;2022-07-09T10:03:15;102002.88;;;29.37;35.73
53506;BME280;39388;50.936;6.848;2022-07-09T10:05:46;101994.88;;;29.09;35.84
53506;BME280;39388;50.936;6.848;2022-07-09T10:08:18;102008.38;;;29.06;35.97
53506;BME280;39388;50.936;6.848;2022-07-09T10:10:51;102013.88;;;29.03;36.72
53506;BME280;39388;50.936;6.848;2022-07-09T10:13:22;101994.78;;;29.11;36.69
53506;BME280;39388;50.936;6.848;2022-07-09T10:15:54;101990.41;;;29.24;36.65
53506;BME280;39388;50.936;6.848;2022-07-09T10:18:25;101992.75;;;29.29;36.71
53506;BME280;39388;50.936;6.848;2022-07-09T10:20:56;101992.09;;;29.25;36.62
53506;BME280;39388;50.936;6.848;2022-07-09T10:23:27;101988.72;;;29.09;36.65
53506;BME280;39388;50.936;6.848;2022-07-09T10:25:57;101992.44;;;28.92;36.96
53506;BME280;39388;50.936;6.848;2022-07-09T10:28:28;101985.13;;;28.81;37.29
53506;BME280;39388;50.936;6.848;2022-07-09T10:31:06;101991.75;;;28.74;37.45
53506;BME280;39388;50.936;6.848;2022-07-09T10:33:43;101985.88;;;28.68;37.64
53506;BME280;39388;50.936;6.848;2022-07-09T10:36:18;101981.41;;;28.69;37.32
53506;BME280;39388;50.936;6.848;2022-07-09T10:38:55;101966.38;;;28.69;36.99
53506;BME280;39388;50.936;6.848;2022-07-09T10:41:26;101961.88;;;28.70;36.84
53506;BME280;39388;50.936;6.848;2022-07-09T10:43:56;101964.06;;;28.78;36.64
53506;BME280;39388;50.936;6.848;2022-07-09T10:46:27;101951.47;;;28.67;37.34
53506;BME280;39388;50.936;6.848;2022-07-09T10:48:58;101961.34;;;28.79;37.02
53506;BME280;39388;50.936;6.848;2022-07-09T10:51:29;101964.84;;;28.94;36.88
53506;BME280;39388;50.936;6.848;2022-07-09T10:54:00;101965.50;;;28.98;37.12
53506;BME280;39388;50.936;6.848;2022-07-09T10:56:31;101963.97;;;29.08;36.76
53506;BME280;39388;50.936;6.848;2022-07-09T10:59:01;101948.69;;;29.12;36.54
53506;BME280;39388;50.936;6.848;2022-07-09T11:01:32;101954.69;;;29.01;37.24
53506;BME280;39388;50.936;6.848;2022-07-09T11:04:03;101952.69;;;28.76;36.95
53506;BME280;39388;50.936;6.848;2022-07-09T11:06:44;101958.88;;;28.47;37.22
53506;BME280;39388;50.936;6.848;2022-07-09T11:09:15;101946.91;;;28.40;37.53
53506;BME280;39388;50.936;6.848;2022-07-09T11:11:46;101949.50;;;28.42;37.63
53506;BME280;39388;50.936;6.848;2022-07-09T11:14:19;101938.19;;;28.38;37.15
53506;BME280;39388;50.936;6.848;2022-07-09T11:16:56;101939.81;;;28.26;37.14
53506;BME280;39388;50.936;6.848;2022-07-09T11:19:29;101943.78;;;28.33;37.49
53506;BME280;39388;50.936;6.848;2022-07-09T11:22:01;101934.22;;;28.31;37.31
53506;BME280;39388;50.936;6.848;2022-07-09T11:24:32;101934.50;;;28.26;37.84
53506;BME280;39388;50.936;6.848;2022-07-09T11:27:07;101935.75;;;28.35;37.99
53506;BME280;39388;50.936;6.848;2022-07-09T11:29:38;101918.03;;;28.50;37.54
53506;BME280;39388;50.936;6.848;2022-07-09T11:32:15;101911.41;;;28.43;37.54
53506;BME280;39388;50.936;6.848;2022-07-09T11:34:49;101921.63;;;28.34;37.86
53506;BME280;39388;50.936;6.848;2022-07-09T11:37:25;101919.09;;;28.17;38.17
53506;BME280;39388;50.936;6.848;2022-07-09T11:39:55;101925.25;;;28.03;38.46
53506;BME280;39388;50.936;6.848;2022-07-09T11:42:25;101928.66;;;27.90;38.52
53506;BME280;39388;50.936;6.848;2022-07-09T11:44:58;101920.97;;;27.86;38.58
53506;BME280;39388;50.936;6.848;2022-07-09T11:47:37;101919.50;;;28.11;38.61
53506;BME280;39388;50.936;6.848;2022-07-09T11:50:10;101921.16;;;28.42;38.17
53506;BME280;39388;50.936;6.848;2022-07-09T11:52:49;101914.13;;;28.70;38.05
53506;BME280;39388;50.936;6.848;2022-07-09T11:55:30;101906.53;;;28.78;37.19
53506;BME280;39388;50.936;6.848;2022-07-09T11:58:07;101909.22;;;28.64;37.42
53506;BME280;39388;50.936;6.848;2022-07-09T12:00:40;101907.69;;;28.45;37.72
53506;BME280;39388;50.936;6.848;2022-07-09T12:03:11;101909.50;;;28.45;37.89
53506;BME280;39388;50.936;6.848;2022-07-09T12:05:41;101898.81;;;28.46;37.40
53506;BME280;39388;50.936;6.848;2022-07-09T12:08:14;101900.69;;;28.44;37.56
53506;BME280;39388;50.936;6.848;2022-07-09T12:10:44;101898.88;;;28.30;38.43
53506;BME280;39388;50.936;6.848;2022-07-09T12:13:15;101884.91;;;28.12;38.38
53506;BME280;39388;50.936;6.848;2022-07-09T12:15:45;101887.38;;;28.01;38.75
53506;BME280;39388;50.936;6.848;2022-07-09T12:18:15;101872.19;;;27.74;39.08
53506;BME280;39388;50.936;6.848;2022-07-09T12:20:46;101884.50;;;27.75;39.58
53506;BME280;39388;50.936;6.848;2022-07-09T12:23:16;101868.03;;;27.84;39.21
53506;BME280;39388;50.936;6.848;2022-07-09T12:25:47;101863.19;;;27.76;39.13
53506;BME280;39388;50.936;6.848;2022-07-09T12:28:17;101863.78;;;27.82;39.38
53506;BME280;39388;50.936;6.848;2022-07-09T12:30:47;101869.41;;;28.06;38.97
53506;BME280;39388;50.936;6.848;2022-07-09T12:33:19;101872.94;;;28.35;38.77
53506;BME280;39388;50.936;6.848;2022-07-09T12:35:50;101857.78;;;28.37;38.65
53506;BME280;39388;50.936;6.848;2022-07-09T12:38:20;101855.41;;;28.47;38.49
53506;BME280;39388;50.936;6.848;2022-07-09T12:40:50;101850.91;;;28.62;38.48
53506;BME280;39388;50.936;6.848;2022-07-09T12:43:21;101842.84;;;28.78;38.50
53506;BME280;39388;50.936;6.848;2022-07-09T12:45:51;101843.56;;;28.80;38.52
53506;BME280;39388;50.936;6.848;2022-07-09T12:48:21;101839.38;;;28.49;38.79
53506;BME280;39388;50.936;6.848;2022-07-09T12:50:52;101838.38;;;28.22;38.96
53506;BME280;39388;50.936;6.848;2022-07-09T12:53:22;101831.22;;;27.94;39.83
53506;BME280;39388;50.936;6.848;2022-07-09T12:55:52;101835.38;;;27.69;40.25
53506;BME280;39388;50.936;6.848;2022-07-09T12:58:23;101831.41;;;27.46;40.94
53506;BME280;39388;50.936;6.848;2022-07-09T13:00:53;101828.38;;;27.22;41.12
53506;BME280;39388;50.936;6.848;2022-07-09T13:03:23;101833.72;;;27.06;41.12
53506;BME280;39388;50.936;6.848;2022-07-09T13:05:54;101822.75;;;26.80;41.56
53506;BME280;39388;50.936;6.848;2022-07-09T13:08:24;101843.84;;;26.65;42.18
53506;BME280;39388;50.936;6.848;2022-07-09T13:10:55;101863.22;;;26.50;43.09